• Join FlightAware (Why Join?)
  • Login
  • US Flag 
06:17AM EDT


 

Airport Tracker/Info


-or-


 

Live Flight TrackerFlight Track Log ✈ SWA2004 ✈ 28-Apr-2013 ✈ KMSY - KMDW

Flight Track Log - Related Links

Times and Time Zones

All times are in EDT time to prevent confusion due to time zone crossing. See the SWA2004 flight status page for this flight to view local times or setup timezone preferences in your user account.

Time Position Orientation Groundspeed Altitude Reporting Facility
EDT Latitude Longitude Course Direction KTS MPH feet Rate Location/Type
08:06AM 29.9822 -90.2536 218° Southwest 157 181 400  Level Houston Center
08:07AM 29.9458 -90.2864 218° Southwest 203 234 2,900 2,100 Climbing Houston Center
08:08AM 29.9731 -90.3081 325° Northwest 256 295 3,900 2,580 Climbing Houston Center
08:09AM 30.0467 -90.3331 344° North 268 308 6,900 3,060 Climbing Houston Center
08:10AM 30.1269 -90.3172 10° North 286 329 10,200 2,460 Climbing Houston Center
08:11AM 30.2183 -90.2942 12° North 329 379 12,000 2,580 Climbing Houston Center
08:12AM 30.3217 -90.2717 11° North 368 423 15,500 3,120 Climbing Houston Center
08:13AM 30.4239 -90.2447 13° North 374 430 18,400 2,400 Climbing Houston Center
08:14AM 30.5325 -90.2219 10° North 391 450 20,500 2,280 Climbing Houston Center
08:15AM 30.6444 -90.2239 359° North 398 458 23,100 2,400 Climbing Houston Center
08:16AM 30.7514 -90.2503 348° North 385 443 25,500 1,620 Climbing Houston Center
08:17AM 30.8725 -90.2494 360° North 429 494 26,400 1,140 Climbing Houston Center
08:18AM 30.9986 -90.2522 359° North 449 517 27,900 1,440 Climbing Houston Center
08:19AM 31.1278 -90.2539 359° North 458 527 29,400 1,620 Climbing Houston Center
08:20AM 31.2606 -90.2547 360° North 471 542 31,100 1,860 Climbing Houston Center
08:21AM 31.3892 -90.2567 359° North 465 535 33,200 1,800 Climbing Houston Center
08:22AM 31.5156 -90.2578 360° North 455 524 34,800 1,620 Climbing Houston Center
08:23AM 31.6408 -90.2597 359° North 451 519 36,600 1,080 Climbing Houston Center
08:24AM 31.7869 -90.2606 360° North 438 504 37,000 180 Climbing Houston Center
08:25AM 31.9075 -90.2619 359° North 434 499 37,000  Level Houston Center
08:25AM 31.9831 -90.2619 360° North 431 496 37,000  Level Memphis Center
08:26AM 32.1042 -90.2642 359° North 431 496 37,000  Level Memphis Center
08:27AM 32.2231 -90.2639 360° North 431 496 37,000  Level Memphis Center
08:28AM 32.3442 -90.2664 359° North 431 496 37,000  Level Memphis Center
08:29AM 32.4653 -90.2661 360° North 431 496 37,000  Level Memphis Center
08:30AM 32.5883 -90.2711 358° North 436 502 37,000 120 Level Memphis Center
08:31AM 32.7094 -90.2808 356° North 436 502 37,300 720 Climbing Memphis Center
08:32AM 32.8328 -90.2906 356° North 441 507 38,500 840 Climbing Memphis Center
08:33AM 32.9494 -90.2978 357° North 435 501 39,000 240 Climbing Memphis Center
08:34AM 33.0706 -90.2878 North 430 495 39,000  Level Memphis Center
08:35AM 33.1917 -90.2703 North 430 495 39,000  Level Memphis Center
08:36AM 33.3128 -90.2503 North 430 495 39,000  Level Memphis Center
08:37AM 33.4339 -90.2328 North 430 495 39,000  Level Memphis Center
08:38AM 33.5547 -90.2128 North 435 501 39,000  Level Memphis Center
08:39AM 33.6781 -90.1925 North 435 501 39,000  Level Memphis Center
08:40AM 33.7989 -90.1747 North 440 506 39,000  Level Memphis Center
08:41AM 33.9200 -90.1569 North 440 506 39,000  Level Memphis Center
08:42AM 34.0411 -90.1367 North 440 506 39,000  Level Memphis Center
08:43AM 34.1642 -90.1161 North 445 512 39,000  Level Memphis Center
08:44AM 34.2933 -90.1006 North 440 506 39,000  Level Memphis Center
08:45AM 34.4144 -90.0803 North 440 506 39,000  Level Memphis Center
08:46AM 34.5417 -90.0622 North 445 512 39,000  Level Memphis Center
08:47AM 34.6606 -90.0439 North 445 512 39,000  Level Memphis Center
08:48AM 34.7878 -90.0258 North 445 512 39,000  Level Memphis Center
08:49AM 34.9150 -90.0050 North 450 518 39,000  Level Memphis Center
08:50AM 35.0256 -89.9869 North 450 518 39,000  Level Memphis Center
08:51AM 35.1486 -89.9558 12° North 445 512 39,000  Level Memphis Center
08:52AM 35.2714 -89.9247 12° North 452 520 39,000  Level Memphis Center
08:53AM 35.4050 -89.8933 11° North 447 514 39,000  Level Memphis Center
08:54AM 35.5319 -89.8647 10° North 453 521 39,000  Level Memphis Center
08:55AM 35.6569 -89.8333 12° North 453 521 39,000  Level Memphis Center
08:56AM 35.7611 -89.8122 North 443 510 39,000  Level Memphis Center
08:57AM 35.8861 -89.7806 12° North 438 504 39,000  Level Memphis Center
08:58AM 36.0092 -89.7539 10° North 445 512 39,000  Level Memphis Center
08:59AM 36.1319 -89.7247 11° North 450 518 39,000  Level Memphis Center
09:00AM 36.2569 -89.6956 11° North 450 518 39,000  Level Memphis Center
09:01AM 36.3942 -89.6633 11° North 450 518 39,000  Level Memphis Center
09:02AM 36.5214 -89.6339 11° North 450 518 39,000  Level Memphis Center
09:03AM 36.6461 -89.6017 12° North 450 518 39,000  Level Memphis Center
09:04AM 36.7689 -89.5722 11° North 450 518 39,000  Level Memphis Center
09:07AM 37.0381 -89.5039 11° North 448 516 39,000  Level Kansas City Center
09:08AM 37.1611 -89.4739 11° North 448 516 39,000  Level Kansas City Center
09:09AM 37.2828 -89.4439 11° North 446 513 39,000  Level Kansas City Center
09:10AM 37.4056 -89.4144 11° North 448 516 39,000  Level Kansas City Center
09:11AM 37.5278 -89.3842 11° North 447 514 39,000  Level Kansas City Center
09:12AM 37.6500 -89.3539 11° North 447 514 39,000  Level Kansas City Center
09:13AM 37.7611 -89.3278 11° North 444 511 39,000  Level Kansas City Center
09:14AM 37.9056 -89.3022 North 448 516 39,000  Level Kansas City Center
09:15AM 38.0253 -89.2783 North 439 505 39,000  Level Kansas City Center
09:16AM 38.1453 -89.2575 North 436 502 39,000 -420 Level Kansas City Center
09:18AM 38.3928 -89.2100 North 435 501 37,800 -720 Descending Kansas City Center
09:19AM 38.5092 -89.1881 North 427 491 36,900 -960 Descending Kansas City Center
09:20AM 38.6336 -89.1644 North 422 486 35,900 -960 Descending Kansas City Center
09:21AM 38.7519 -89.1417 North 429 494 35,000 -720 Descending Kansas City Center
09:22AM 38.8667 -89.1197 North 420 483 34,500 -780 Descending Kansas City Center
09:23AM 38.9831 -89.0961 North 424 488 33,500 -1,020 Descending Kansas City Center
09:24AM 39.1089 -89.0725 North 425 489 32,500 -960 Descending Kansas City Center
09:25AM 39.2258 -89.0475 North 433 498 31,600 -960 Descending Kansas City Center
09:26AM 39.3464 -89.0250 North 436 502 30,600 -960 Descending Kansas City Center
09:27AM 39.4567 -89.0036 North 433 498 29,700 -840 Descending Kansas City Center
09:28AM 39.5725 -88.9814 North 426 490 29,000 -360 Descending Kansas City Center
09:29AM 39.6867 -88.9583 North 419 482 29,000  Level Kansas City Center
09:30AM 39.8242 -88.9314 North 418 481 29,000  Level Kansas City Center
09:31AM 39.9378 -88.9106 North 414 476 29,000  Level Kansas City Center
09:32AM 40.0525 -88.8869 North 416 479 29,000 -600 Level Kansas City Center
09:33AM 40.1667 -88.8644 North 416 479 27,800 -1,740 Descending Kansas City Center
09:34AM 40.2108 -88.8569 North 416 479 26,600 -2,640 Descending Chicago Center
09:35AM 40.3222 -88.8322 10° North 412 474 24,200 -2,400 Descending Chicago Center
09:36AM 40.4281 -88.8125 North 397 457 21,800 -2,280 Descending Chicago Center
09:37AM 40.5294 -88.7944 North 376 433 19,600 -2,100 Descending Chicago Center
09:38AM 40.6283 -88.7733 North 365 420 17,600 -1,320 Descending Chicago Center
09:39AM 40.7250 -88.7536 North 356 410 17,000 -660 Descending Chicago Center
09:40AM 40.8333 -88.6983 21° North 352 405 16,300 -1,260 Descending Chicago Center
09:41AM 40.9208 -88.6528 21° North 342 394 14,500 -1,860 Descending Chicago Center
09:42AM 41.0056 -88.6081 22° Northeast 335 386 12,600 -1,800 Descending Chicago Center
09:43AM 41.0886 -88.5617 23° Northeast 327 376 10,800 -1,260 Descending Chicago Center
09:44AM 41.1681 -88.5203 21° North 314 361 10,100 -960 Descending Chicago Center
09:45AM 41.2389 -88.4828 22° Northeast 292 336 8,900 -1,260 Descending Chicago Center
09:46AM 41.3078 -88.4458 22° Northeast 277 319 7,500 -1,440 Descending Chicago Center
09:47AM 41.3856 -88.3919 27° Northeast 273 314 6,000 -780 Descending Chicago Center
09:48AM 41.4286 -88.3175 52° Northeast 259 298 6,000 -360 Level Chicago Center
09:49AM 41.4728 -88.2392 53° Northeast 260 299 5,300 -600 Descending Chicago Center
09:50AM 41.5133 -88.1675 53° Northeast 245 282 4,800 -660 Descending Chicago Center
09:51AM 41.5397 -88.0961 64° Northeast 227 261 4,000 -420 Descending Chicago Center
09:52AM 41.5611 -88.0381 64° Northeast 195 224 4,000  Level Chicago Center
09:53AM 41.5919 -87.9922 48° Northeast 176 203 4,000  Level Chicago Center
09:54AM 41.6264 -87.9522 41° Northeast 168 193 4,000 -60 Level Chicago Center
09:55AM 41.6606 -87.9094 43° Northeast 168 193 3,900 -540 Descending Chicago Center
09:56AM 41.6986 -87.8614 43° Northeast 162 186 2,900 -1,020 Descending Chicago Center
09:56AM 41.7000 -87.8500 81° East 147 169 2,600 -840 Descending Chicago TRACON
09:57AM 41.7333 -87.8167 37° Northeast 139 160 1,800 -780 Descending Chicago TRACON
09:58AM 41.7667 -87.7833 37° Northeast 131 151 1,200 -720 Descending Chicago TRACON